createdAt,value
2022-09-06T00:01:14.057Z,6.85
2022-09-06T00:03:45.140Z,4.53
2022-09-06T00:06:15.809Z,3.72
2022-09-06T00:08:47.122Z,4.00
2022-09-06T00:11:16.139Z,6.18
2022-09-06T00:13:44.823Z,6.88
2022-09-06T00:16:18.323Z,3.65
2022-09-06T00:18:47.256Z,4.88
2022-09-06T00:21:17.793Z,4.63
2022-09-06T00:23:48.446Z,3.38
2022-09-06T00:26:16.994Z,3.72
2022-09-06T00:28:45.715Z,4.50
2022-09-06T00:31:15.713Z,4.10
2022-09-06T00:33:44.236Z,4.40
2022-09-06T00:36:13.562Z,7.90
2022-09-06T00:38:42.560Z,5.47
2022-09-06T00:41:14.617Z,4.53
2022-09-06T00:43:43.460Z,4.35
2022-09-06T00:46:16.126Z,3.83
2022-09-06T00:48:46.258Z,3.78
2022-09-06T00:51:17.715Z,4.55
2022-09-06T00:53:46.066Z,4.53
2022-09-06T00:56:15.782Z,5.15
2022-09-06T00:58:44.618Z,4.80
2022-09-06T01:01:12.765Z,3.58
2022-09-06T01:03:41.478Z,4.20
2022-09-06T01:06:22.108Z,3.75
2022-09-06T01:09:01.324Z,4.68
2022-09-06T01:11:56.758Z,4.07
2022-09-06T01:14:37.803Z,4.85
2022-09-06T01:17:17.963Z,4.40
2022-09-06T01:20:11.492Z,3.95
2022-09-06T01:23:05.587Z,4.32
2022-09-06T01:25:40.167Z,5.13
2022-09-06T01:28:28.917Z,4.22
2022-09-06T01:31:11.124Z,4.05
2022-09-06T01:33:45.545Z,4.65
2022-09-06T01:36:18.465Z,5.85
2022-09-06T01:38:46.680Z,5.78
2022-09-06T01:41:14.689Z,5.80
2022-09-06T01:43:48.514Z,4.80
2022-09-06T01:46:24.525Z,5.57
2022-09-06T01:49:04.437Z,5.05
2022-09-06T01:51:40.232Z,6.13
2022-09-06T01:54:22.113Z,5.43
2022-09-06T01:57:00.465Z,5.72
2022-09-06T01:59:42.583Z,4.60
2022-09-06T02:02:15.083Z,4.85
2022-09-06T02:04:47.091Z,5.40
2022-09-06T02:07:21.263Z,7.13
2022-09-06T02:09:54.863Z,10.60
2022-09-06T02:12:25.162Z,5.13
2022-09-06T02:14:58.864Z,4.90
2022-09-06T02:17:30.968Z,6.40
2022-09-06T02:20:03.495Z,4.95
2022-09-06T02:22:34.283Z,5.88
2022-09-06T02:25:04.793Z,6.28
2022-09-06T02:27:34.436Z,7.00
2022-09-06T02:30:04.251Z,5.72
2022-09-06T02:32:36.629Z,5.85
2022-09-06T02:35:10.328Z,5.28
2022-09-06T02:37:38.586Z,6.80
2022-09-06T02:40:07.814Z,8.43
2022-09-06T02:42:36.141Z,5.32
2022-09-06T02:45:06.267Z,6.95
2022-09-06T02:47:34.405Z,5.18
2022-09-06T02:50:02.531Z,7.07
2022-09-06T02:52:30.901Z,6.03
2022-09-06T02:54:59.007Z,6.85
2022-09-06T03:01:48.624Z,7.05
2022-09-06T03:04:18.792Z,7.03
2022-09-06T03:06:47.121Z,6.78
2022-09-06T03:09:17.535Z,6.97
2022-09-06T03:11:45.611Z,6.00
2022-09-06T03:14:13.750Z,7.05
2022-09-06T03:16:41.860Z,8.32
2022-09-06T03:19:11.342Z,7.05
2022-09-06T03:21:39.424Z,6.82
2022-09-06T03:24:08.038Z,6.28
2022-09-06T03:26:36.186Z,6.90
2022-09-06T03:29:04.246Z,6.55
2022-09-06T03:31:32.302Z,7.22
2022-09-06T03:34:00.353Z,8.77
2022-09-06T03:36:29.794Z,7.57
2022-09-06T03:38:58.348Z,6.65
2022-09-06T03:41:26.454Z,6.80
2022-09-06T03:43:55.859Z,8.50
2022-09-06T03:46:23.975Z,9.48
2022-09-06T03:48:52.192Z,9.38
2022-09-06T03:51:21.032Z,6.68
2022-09-06T03:53:50.669Z,8.70
2022-09-06T03:56:18.773Z,7.72
2022-09-06T03:58:47.148Z,9.30
2022-09-06T04:01:15.309Z,8.52
2022-09-06T04:03:43.485Z,6.93
2022-09-06T04:06:11.539Z,9.10
2022-09-06T04:08:40.733Z,8.55
2022-09-06T04:11:10.585Z,8.45
2022-09-06T04:13:38.650Z,7.28
2022-09-06T04:16:07.790Z,6.72
2022-09-06T04:18:35.950Z,8.57
2022-09-06T04:21:04.187Z,10.52
2022-09-06T04:23:34.327Z,7.43
2022-09-06T04:26:06.070Z,8.57
2022-09-06T04:28:35.756Z,7.60
2022-09-06T04:31:05.533Z,9.43
2022-09-06T04:33:35.250Z,8.88
2022-09-06T04:36:05.108Z,9.43
2022-09-06T04:38:37.649Z,7.50
2022-09-06T04:41:06.783Z,7.93
2022-09-06T04:43:36.333Z,7.55
2022-09-06T04:46:06.664Z,8.38
2022-09-06T04:48:34.751Z,9.13
2022-09-06T04:51:02.777Z,9.65
2022-09-06T04:53:30.815Z,7.25
2022-09-06T04:55:59.408Z,8.65
2022-09-06T04:58:27.661Z,8.20
2022-09-06T05:00:57.165Z,8.80
2022-09-06T05:03:25.491Z,8.20
2022-09-06T05:05:53.640Z,10.77
2022-09-06T05:08:22.084Z,10.50
2022-09-06T05:10:52.633Z,11.15
2022-09-06T05:13:20.720Z,9.90
2022-09-06T05:15:51.365Z,9.88
2022-09-06T05:18:20.769Z,10.75
2022-09-06T05:20:53.003Z,8.27
2022-09-06T05:23:21.408Z,8.60
2022-09-06T05:25:49.962Z,7.93
2022-09-06T05:28:18.645Z,9.00
2022-09-06T05:30:46.741Z,9.20
2022-09-06T05:33:20.166Z,9.07
2022-09-06T05:35:50.086Z,9.82
2022-09-06T05:38:18.233Z,9.48
2022-09-06T05:40:50.202Z,10.05
2022-09-06T05:43:18.579Z,6.95
2022-09-06T05:45:46.852Z,6.88
2022-09-06T05:48:14.946Z,7.80
2022-09-06T05:50:43.156Z,7.68
2022-09-06T05:53:13.078Z,9.10
2022-09-06T05:55:46.225Z,8.13
2022-09-06T05:58:14.305Z,8.90
2022-09-06T06:00:42.345Z,10.45
2022-09-06T06:03:10.445Z,7.72
2022-09-06T06:05:38.576Z,10.32
2022-09-06T06:08:06.653Z,8.63
2022-09-06T06:10:39.439Z,7.85
2022-09-06T06:13:08.705Z,8.65
2022-09-06T06:15:36.783Z,9.57
2022-09-06T06:18:04.988Z,9.25
2022-09-06T06:20:33.039Z,10.52
2022-09-06T06:23:01.100Z,7.80
2022-09-06T06:25:29.213Z,7.80
2022-09-06T06:27:58.748Z,8.98
2022-09-06T06:30:55.125Z,10.38
2022-09-06T06:33:25.452Z,7.88
2022-09-06T06:36:00.617Z,8.75
2022-09-06T06:38:34.979Z,11.35
2022-09-06T06:41:06.854Z,9.25
2022-09-06T06:43:37.818Z,9.80
2022-09-06T06:46:08.242Z,8.63
2022-09-06T06:48:36.828Z,7.43
2022-09-06T06:51:05.088Z,9.30
2022-09-06T06:53:33.784Z,8.43
2022-09-06T06:56:02.206Z,7.22
2022-09-06T06:58:32.205Z,6.88
2022-09-06T07:01:04.374Z,7.60
2022-09-06T07:03:32.584Z,7.53
2022-09-06T07:06:16.143Z,6.72
2022-09-06T07:08:47.080Z,7.18
2022-09-06T07:11:19.484Z,7.38
2022-09-06T07:13:53.096Z,7.07
2022-09-06T07:16:28.238Z,8.73
2022-09-06T07:24:06.603Z,5.85
2022-09-06T07:26:36.584Z,7.28
2022-09-06T07:29:06.335Z,6.25
2022-09-06T07:34:26.315Z,6.53
2022-09-06T07:36:54.593Z,6.10
2022-09-06T07:39:23.531Z,5.55
2022-09-06T07:41:52.179Z,6.03
2022-09-06T07:44:20.250Z,6.28
2022-09-06T07:46:52.624Z,6.97
2022-09-06T07:49:20.886Z,9.30
2022-09-06T07:51:49.281Z,6.30
2022-09-06T07:54:32.791Z,5.50
2022-09-06T07:57:03.373Z,6.22
2022-09-06T07:59:31.645Z,7.22
2022-09-06T08:02:01.186Z,7.25
2022-09-06T08:04:29.494Z,5.75
2022-09-06T08:09:45.597Z,5.47
2022-09-06T08:12:13.850Z,5.15
2022-09-06T08:14:44.412Z,6.20
2022-09-06T08:17:14.011Z,8.18
2022-09-06T08:19:42.161Z,5.53
2022-09-06T08:22:10.245Z,5.22
2022-09-06T08:24:38.688Z,5.32
2022-09-06T08:27:07.776Z,6.53
2022-09-06T08:29:36.423Z,5.00
2022-09-06T08:32:07.775Z,4.55
2022-09-06T08:34:37.335Z,5.68
2022-09-06T08:37:05.467Z,5.07
2022-09-06T08:39:33.808Z,5.18
2022-09-06T08:42:04.047Z,4.75
2022-09-06T08:47:23.851Z,4.65
2022-09-06T08:49:57.246Z,7.55
2022-09-06T08:52:54.425Z,8.45
2022-09-06T08:55:36.171Z,5.38
2022-09-06T08:58:26.036Z,7.60
2022-09-06T09:00:58.870Z,4.93
2022-09-06T09:03:33.256Z,4.82
2022-09-06T09:06:05.433Z,7.15
2022-09-06T09:08:41.142Z,4.57
2022-09-06T09:11:13.346Z,6.63
2022-09-06T09:13:52.218Z,4.97
2022-09-06T09:16:22.870Z,6.55
2022-09-06T09:18:53.564Z,8.40
2022-09-06T09:21:30.232Z,6.63
2022-09-06T09:24:03.079Z,5.85
2022-09-06T09:26:37.534Z,7.88
2022-09-06T09:29:08.487Z,7.28
2022-09-06T09:31:39.621Z,6.93
2022-09-06T09:34:13.074Z,7.10
2022-09-06T09:39:37.203Z,7.05
2022-09-06T09:42:06.002Z,6.28
2022-09-06T09:44:34.916Z,5.78
2022-09-06T09:47:24.439Z,6.80
2022-09-06T09:49:52.568Z,6.50
2022-09-06T09:52:29.141Z,8.60
2022-09-06T09:55:01.105Z,5.90
2022-09-06T09:57:32.629Z,6.47
2022-09-06T10:00:01.963Z,9.30
2022-09-06T10:02:35.667Z,5.65
2022-09-06T10:05:07.725Z,6.63
2022-09-06T10:07:45.325Z,5.85
2022-09-06T10:10:16.113Z,7.30
2022-09-06T10:12:44.325Z,7.90
2022-09-06T10:15:32.460Z,4.95
2022-09-06T10:18:00.605Z,4.97
2022-09-06T10:20:51.502Z,4.97
2022-09-06T10:26:24.603Z,6.10
2022-09-06T10:28:59.490Z,7.38
2022-09-06T10:31:42.164Z,4.63
2022-09-06T10:34:33.027Z,3.95
2022-09-06T10:37:12.795Z,5.55
2022-09-06T10:39:50.125Z,5.55
2022-09-06T10:42:27.980Z,4.93
2022-09-06T10:45:17.044Z,3.55
2022-09-06T10:47:58.484Z,3.75
2022-09-06T10:50:35.919Z,5.18
2022-09-06T10:53:11.832Z,4.15
2022-09-06T10:55:47.351Z,2.30
2022-09-06T10:58:22.540Z,4.13
2022-09-06T11:00:52.369Z,7.43
2022-09-06T11:06:18.315Z,3.80
2022-09-06T11:08:57.775Z,3.33
2022-09-06T11:11:35.646Z,2.88
2022-09-06T11:14:10.251Z,3.95
2022-09-06T11:16:47.013Z,6.10
2022-09-06T11:19:24.971Z,5.30
2022-09-06T11:22:27.431Z,4.18
2022-09-06T11:25:25.303Z,3.83
2022-09-06T11:28:01.922Z,4.63
2022-09-06T11:30:30.823Z,4.63
2022-09-06T11:33:17.366Z,3.28
2022-09-06T11:35:46.108Z,3.95
2022-09-06T11:38:24.735Z,2.78
2022-09-06T11:40:59.976Z,3.10
2022-09-06T11:43:45.953Z,2.20
2022-09-06T11:46:54.106Z,2.95
2022-09-06T11:49:41.839Z,3.03
2022-09-06T11:52:59.306Z,2.28
2022-09-06T11:55:37.524Z,4.35
2022-09-06T11:58:09.914Z,3.20
2022-09-06T12:00:39.431Z,3.70
2022-09-06T12:06:18.165Z,2.25
2022-09-06T12:08:46.615Z,2.05
2022-09-06T12:11:35.504Z,3.65
2022-09-06T12:14:06.782Z,2.50
2022-09-06T12:17:27.208Z,2.78
2022-09-06T12:20:06.883Z,3.00
2022-09-06T12:22:55.245Z,2.10
2022-09-06T12:25:52.627Z,2.95
2022-09-06T12:28:30.674Z,2.15
2022-09-06T12:30:58.979Z,3.20
2022-09-06T12:33:32.072Z,2.85
2022-09-06T12:36:19.426Z,4.53
2022-09-06T12:38:58.691Z,3.33
2022-09-06T12:41:28.699Z,2.00
2022-09-06T12:43:59.396Z,2.78
2022-09-06T12:46:30.506Z,4.78
2022-09-06T12:49:07.375Z,2.15
2022-09-06T12:51:38.504Z,4.93
2022-09-06T12:54:17.904Z,4.07
2022-09-06T12:56:45.974Z,3.22
2022-09-06T12:59:17.150Z,3.58
2022-09-06T13:01:54.377Z,3.33
2022-09-06T13:04:30.153Z,2.53
2022-09-06T13:07:00.898Z,4.25
2022-09-06T13:09:30.632Z,2.58
2022-09-06T13:12:04.984Z,5.03
2022-09-06T13:14:35.912Z,4.18
2022-09-06T13:17:03.999Z,4.43
2022-09-06T13:19:37.459Z,2.85
2022-09-06T13:22:08.764Z,4.90
2022-09-06T13:24:47.076Z,4.43
2022-09-06T13:27:34.141Z,3.03
2022-09-06T13:30:05.865Z,2.08
2022-09-06T13:32:35.885Z,1.95
2022-09-06T13:35:04.847Z,2.45
2022-09-06T13:37:39.376Z,3.80
2022-09-06T13:40:53.832Z,3.10
2022-09-06T13:43:26.647Z,3.33
2022-09-06T13:46:08.964Z,1.77
2022-09-06T13:48:38.543Z,3.25
2022-09-06T13:51:08.480Z,3.20
2022-09-06T13:53:37.961Z,2.88
2022-09-06T13:56:08.711Z,4.70
2022-09-06T13:58:37.163Z,5.05
2022-09-06T14:01:09.125Z,2.22
2022-09-06T14:03:39.190Z,4.78
2022-09-06T14:06:07.991Z,4.03
2022-09-06T14:09:03.243Z,3.88
2022-09-06T14:11:27.553Z,2.95
2022-09-06T14:13:55.787Z,2.67
2022-09-06T14:16:24.090Z,3.38
2022-09-06T14:18:53.198Z,3.83
2022-09-06T14:21:21.459Z,3.53
2022-09-06T14:23:52.197Z,5.20
2022-09-06T14:26:21.078Z,4.22
2022-09-06T14:28:51.894Z,5.20
2022-09-06T14:31:22.301Z,4.25
2022-09-06T14:33:50.745Z,4.72
2022-09-06T14:36:22.318Z,4.40
2022-09-06T14:38:52.382Z,3.90
2022-09-06T14:41:21.702Z,2.95
2022-09-06T14:43:52.702Z,4.22
2022-09-06T14:46:22.535Z,4.63
2022-09-06T14:48:57.093Z,2.83
2022-09-06T14:51:25.265Z,4.70
2022-09-06T14:53:57.743Z,3.05
2022-09-06T14:56:26.257Z,4.72
2022-09-06T14:58:57.746Z,3.72
2022-09-06T15:01:28.595Z,3.58
2022-09-06T15:03:59.199Z,6.32
2022-09-06T15:06:28.687Z,2.72
2022-09-06T15:08:59.591Z,4.07
2022-09-06T15:11:34.657Z,4.03
2022-09-06T15:14:03.941Z,2.58
2022-09-06T15:16:34.257Z,2.53
2022-09-06T15:19:03.510Z,3.63
2022-09-06T15:21:34.501Z,4.57
2022-09-06T15:24:09.637Z,5.97
2022-09-06T15:29:08.784Z,2.33
2022-09-06T15:31:50.512Z,4.63
2022-09-06T15:34:19.432Z,2.50
2022-09-06T15:36:52.025Z,3.50
2022-09-06T15:39:21.666Z,3.88
2022-09-06T15:41:52.806Z,2.70
2022-09-06T15:44:28.733Z,3.08
2022-09-06T15:46:59.209Z,3.50
2022-09-06T15:49:30.899Z,2.58
2022-09-06T15:52:00.878Z,3.35
2022-09-06T15:54:48.395Z,3.55
2022-09-06T15:57:19.890Z,3.75
2022-09-06T15:59:48.411Z,1.77
2022-09-06T16:02:18.786Z,4.60
2022-09-06T16:04:47.270Z,3.38
2022-09-06T16:07:15.708Z,2.58
2022-09-06T16:09:45.429Z,3.38
2022-09-06T16:12:14.655Z,1.83
2022-09-06T16:14:43.142Z,3.97
2022-09-06T16:17:13.876Z,2.72
2022-09-06T16:19:42.093Z,3.28
2022-09-06T16:22:10.359Z,3.35
2022-09-06T16:24:40.368Z,4.05
2022-09-06T16:27:12.549Z,4.70
2022-09-06T16:29:47.249Z,2.45
2022-09-06T16:32:16.498Z,1.65
2022-09-06T16:35:02.930Z,1.85
2022-09-06T16:37:33.712Z,2.70
2022-09-06T16:40:01.960Z,2.08
2022-09-06T16:42:31.598Z,2.38
2022-09-06T16:45:00.014Z,4.78
2022-09-06T16:47:28.299Z,2.08
2022-09-06T16:49:56.632Z,2.17
2022-09-06T16:52:25.031Z,1.67
2022-09-06T16:54:53.620Z,2.20
2022-09-06T16:57:25.647Z,2.60
2022-09-06T16:59:55.270Z,2.05
2022-09-06T17:02:24.019Z,4.38
2022-09-06T17:04:53.889Z,4.47
2022-09-06T17:07:22.538Z,5.00
2022-09-06T17:09:50.850Z,4.40
2022-09-06T17:12:19.291Z,3.40
2022-09-06T17:14:47.540Z,1.48
2022-09-06T17:17:18.397Z,3.00
2022-09-06T17:19:46.609Z,2.13
2022-09-06T17:22:14.959Z,2.65
2022-09-06T17:24:43.670Z,1.58
2022-09-06T17:27:12.047Z,2.75
2022-09-06T17:29:40.781Z,2.47
2022-09-06T17:32:10.235Z,2.03
2022-09-06T17:34:40.787Z,2.30
2022-09-06T17:37:09.679Z,2.38
2022-09-06T17:39:38.366Z,4.05
2022-09-06T17:42:07.164Z,2.30
2022-09-06T17:44:35.663Z,2.75
2022-09-06T17:47:13.315Z,2.95
2022-09-06T17:49:44.933Z,3.25
2022-09-06T17:52:13.874Z,3.17
2022-09-06T17:54:42.071Z,4.20
2022-09-06T17:57:10.194Z,3.55
2022-09-06T17:59:38.506Z,6.25
2022-09-06T18:02:09.399Z,2.58
2022-09-06T18:04:37.634Z,4.90
2022-09-06T18:07:07.284Z,5.18
2022-09-06T18:09:36.904Z,3.55
2022-09-06T18:12:05.362Z,5.25
2022-09-06T18:14:33.582Z,5.60
2022-09-06T18:17:04.187Z,5.82
2022-09-06T18:19:32.298Z,4.43
2022-09-06T18:22:00.412Z,4.05
2022-09-06T18:24:30.163Z,4.47
2022-09-06T18:26:58.479Z,3.80
2022-09-06T18:29:26.603Z,5.38
2022-09-06T18:31:57.416Z,6.55
2022-09-06T18:34:25.663Z,4.57
2022-09-06T18:36:53.827Z,4.60
2022-09-06T18:39:22.041Z,3.67
2022-09-06T18:42:00.761Z,4.20
2022-09-06T18:44:32.284Z,4.78
2022-09-06T18:47:02.072Z,8.85
2022-09-06T18:49:32.477Z,4.60
2022-09-06T18:52:03.336Z,5.53
2022-09-06T18:54:31.944Z,3.92
2022-09-06T18:57:01.424Z,4.72
2022-09-06T18:59:29.535Z,5.70
2022-09-06T19:01:57.793Z,6.72
2022-09-06T19:04:26.193Z,7.07
2022-09-06T19:06:56.670Z,6.25
2022-09-06T19:09:24.887Z,5.53
2022-09-06T19:11:53.735Z,4.22
2022-09-06T19:14:23.402Z,8.52
2022-09-06T19:16:53.798Z,4.30
2022-09-06T19:19:23.077Z,7.45
2022-09-06T19:21:51.691Z,7.53
2022-09-06T19:24:22.526Z,4.75
2022-09-06T19:26:51.464Z,4.43
2022-09-06T19:29:20.649Z,5.93
2022-09-06T19:31:50.404Z,4.07
2022-09-06T19:34:19.006Z,7.13
2022-09-06T19:36:47.185Z,5.32
2022-09-06T19:39:17.156Z,4.18
2022-09-06T19:41:47.429Z,6.10
2022-09-06T19:44:16.885Z,5.43
2022-09-06T19:46:47.307Z,5.25
2022-09-06T19:49:19.107Z,8.40
2022-09-06T19:51:48.884Z,4.25
2022-09-06T19:54:17.852Z,4.80
2022-09-06T19:56:46.623Z,3.88
2022-09-06T19:59:23.409Z,4.45
2022-09-06T20:01:51.570Z,4.05
2022-09-06T20:04:21.290Z,5.30
2022-09-06T20:06:49.524Z,6.03
2022-09-06T20:09:17.720Z,6.93
2022-09-06T20:11:46.389Z,6.40
2022-09-06T20:14:14.863Z,8.65
2022-09-06T20:16:43.097Z,5.07
2022-09-06T20:19:14.177Z,7.88
2022-09-06T20:21:44.096Z,4.82
2022-09-06T20:24:12.443Z,4.95
2022-09-06T20:26:40.652Z,7.78
2022-09-06T20:29:08.866Z,7.85
2022-09-06T20:31:37.879Z,4.32
2022-09-06T20:34:07.432Z,5.35
2022-09-06T20:36:35.884Z,4.55
2022-09-06T20:39:05.869Z,3.58
2022-09-06T20:41:34.938Z,5.28
2022-09-06T20:44:03.630Z,8.35
2022-09-06T20:46:35.084Z,4.18
2022-09-06T20:49:05.049Z,5.43
2022-09-06T20:51:35.276Z,5.38
2022-09-06T20:54:06.123Z,10.00
2022-09-06T20:56:36.372Z,5.13
2022-09-06T20:59:06.595Z,4.28
2022-09-06T21:01:36.540Z,8.13
2022-09-06T21:04:07.447Z,8.50
2022-09-06T21:06:37.603Z,5.35
2022-09-06T21:09:08.723Z,10.68
2022-09-06T21:11:37.289Z,5.18
2022-09-06T21:14:09.396Z,7.47
2022-09-06T21:16:38.831Z,5.43
2022-09-06T21:19:09.078Z,4.32
2022-09-06T21:21:37.803Z,6.10
2022-09-06T21:24:08.961Z,6.43
2022-09-06T21:26:37.432Z,6.28
2022-09-06T21:29:07.623Z,7.63
2022-09-06T21:31:37.860Z,6.50
2022-09-06T21:34:11.489Z,6.72
2022-09-06T21:36:43.531Z,8.60
2022-09-06T21:39:13.623Z,5.45
2022-09-06T21:41:43.319Z,5.25
2022-09-06T21:44:12.119Z,9.55
2022-09-06T21:46:41.639Z,5.57
2022-09-06T21:49:11.834Z,5.30
2022-09-06T21:51:43.267Z,7.88
2022-09-06T21:54:12.781Z,6.28
2022-09-06T21:56:43.280Z,7.50
2022-09-06T21:59:11.491Z,4.88
2022-09-06T22:01:43.156Z,6.30
2022-09-06T22:04:13.600Z,5.53
2022-09-06T22:06:41.813Z,5.13
2022-09-06T22:09:12.923Z,5.13
2022-09-06T22:11:42.791Z,8.90
2022-09-06T22:14:12.827Z,5.10
2022-09-06T22:16:41.915Z,7.15
2022-09-06T22:19:10.942Z,5.57
2022-09-06T22:21:39.638Z,8.48
2022-09-06T22:24:10.406Z,6.85
2022-09-06T22:26:41.846Z,5.50
2022-09-06T22:29:15.484Z,7.50
2022-09-06T22:31:44.458Z,6.80
2022-09-06T22:34:12.915Z,5.70
2022-09-06T22:36:43.773Z,5.03
2022-09-06T22:39:11.923Z,8.80
2022-09-06T22:41:41.386Z,5.20
2022-09-06T22:44:09.496Z,6.28
2022-09-06T22:46:39.927Z,5.97
2022-09-06T22:49:08.258Z,6.28
2022-09-06T22:51:36.397Z,6.50
2022-09-06T22:54:07.660Z,5.47
2022-09-06T22:56:36.385Z,6.95
2022-09-06T22:59:06.300Z,7.53
2022-09-06T23:01:38.746Z,6.65
2022-09-06T23:04:07.419Z,6.07
2022-09-06T23:06:40.774Z,6.72
2022-09-06T23:09:13.871Z,6.13
2022-09-06T23:11:47.825Z,7.82
2022-09-06T23:14:25.424Z,5.53
2022-09-06T23:17:00.523Z,6.22
2022-09-06T23:19:44.650Z,5.53
2022-09-06T23:22:16.126Z,8.85
2022-09-06T23:24:48.628Z,6.88
2022-09-06T23:27:20.312Z,9.32
2022-09-06T23:29:50.763Z,6.07
2022-09-06T23:32:18.880Z,5.00
2022-09-06T23:34:47.026Z,8.65
2022-09-06T23:37:15.165Z,6.22
2022-09-06T23:39:43.348Z,7.05
2022-09-06T23:42:11.893Z,4.90
2022-09-06T23:44:40.124Z,8.50
2022-09-06T23:47:09.659Z,5.53
2022-09-06T23:49:37.733Z,8.50
2022-09-06T23:52:08.673Z,5.25
2022-09-06T23:54:36.812Z,6.82
2022-09-06T23:57:05.245Z,5.30
2022-09-06T23:59:34.937Z,6.40
